Time;durP1;ratioP1;P1;durP2;ratioP2;P2;SDS_P1;SDS_P2;PMS_P1;PMS_P2;Temp;Humidity;BMP_temperature;BMP_pressure;BME280_temperature;BME280_humidity;BME280_pressure;Samples;Min_cycle;Max_cycle;Signal;HPM_P1;HPM_P2
2023/05/04 00:00:26;;;;;;;;;;;9.60;99.90;;;;;;5079870;28;19932;-69
2023/05/04 00:02:55;;;;;;;;;;;9.60;99.90;;;;;;5075844;28;19954;-69
2023/05/04 00:05:21;;;;;;;;;;;9.50;99.90;;;;;;5078138;28;19928;-69
2023/05/04 00:07:48;;;;;;;;;;;9.50;99.90;;;;;;5085870;28;19985;-69
2023/05/04 00:10:15;;;;;;;;;;;9.50;99.90;;;;;;5076890;28;19924;-67
2023/05/04 00:12:42;;;;;;;;;;;9.70;99.90;;;;;;5076535;28;19924;-69
2023/05/04 00:15:09;;;;;;;;;;;9.70;99.90;;;;;;5076927;28;20308;-70
2023/05/04 00:17:36;;;;;;;;;;;9.80;99.90;;;;;;5074748;28;19924;-69
2023/05/04 00:20:04;;;;;;;;;;;9.80;99.90;;;;;;5080544;28;19925;-70
2023/05/04 00:22:31;;;;;;;;;;;9.80;99.90;;;;;;5076726;28;19925;-69
2023/05/04 00:24:58;;;;;;;;;;;9.70;99.90;;;;;;5083722;28;19924;-69
2023/05/04 00:27:24;;;;;;;;;;;9.80;99.90;;;;;;5082794;28;19924;-69
2023/05/04 00:29:51;;;;;;;;;;;9.70;99.90;;;;;;5084068;28;19925;-69
2023/05/04 00:32:18;;;;;;;;;;;9.70;99.90;;;;;;5077218;28;19924;-69
2023/05/04 00:34:45;;;;;;;;;;;9.60;99.90;;;;;;5082028;28;20413;-69
2023/05/04 00:37:13;;;;;;;;;;;9.60;99.90;;;;;;5075868;28;19925;-70
2023/05/04 00:39:40;;;;;;;;;;;9.60;99.90;;;;;;5081022;28;19924;-69
2023/05/04 00:42:07;;;;;;;;;;;9.50;99.90;;;;;;5076880;28;19952;-68
2023/05/04 00:44:34;;;;;;;;;;;9.50;99.90;;;;;;5072574;28;19978;-70
2023/05/04 00:47:02;;;;;;;;;;;9.40;99.90;;;;;;5075933;28;19924;-69
2023/05/04 00:49:29;;;;;;;;;;;9.40;99.90;;;;;;5072487;28;19925;-70
2023/05/04 00:51:56;;;;;;;;;;;9.40;99.90;;;;;;5073220;28;20411;-69
2023/05/04 00:54:25;;;;;;;;;;;9.30;99.90;;;;;;5080794;28;19924;-69
2023/05/04 00:56:52;;;;;;;;;;;9.30;99.90;;;;;;5081487;28;19931;-69
2023/05/04 00:59:19;;;;;;;;;;;9.30;99.90;;;;;;5075869;28;19925;-69
2023/05/04 01:01:46;;;;;;;;;;;9.20;99.90;;;;;;5072026;28;19925;-69
2023/05/04 01:04:13;;;;;;;;;;;9.20;99.90;;;;;;5082450;28;19954;-70
2023/05/04 01:06:43;;;;;;;;;;;9.20;99.90;;;;;;5083882;28;19928;-67
2023/05/04 01:09:15;;;;;;;;;;;9.20;99.90;;;;;;5073877;28;19924;-70
2023/05/04 01:11:47;;;;;;;;;;;9.20;99.90;;;;;;5072489;28;19924;-70
2023/05/04 01:14:14;;;;;;;;;;;9.20;99.90;;;;;;5075573;28;19932;-69
2023/05/04 01:16:41;;;;;;;;;;;9.10;99.90;;;;;;5083005;28;20391;-69
2023/05/04 01:19:08;;;;;;;;;;;9.10;99.90;;;;;;5084606;28;19947;-69
2023/05/04 01:21:37;;;;;;;;;;;9.20;99.90;;;;;;5079782;28;19928;-68
2023/05/04 01:24:04;;;;;;;;;;;9.30;99.90;;;;;;5084637;28;20015;-69
2023/05/04 01:26:34;;;;;;;;;;;9.30;99.90;;;;;;5077406;28;19940;-69
2023/05/04 01:29:04;;;;;;;;;;;9.30;99.90;;;;;;5078573;28;19924;-68
2023/05/04 01:31:34;;;;;;;;;;;9.30;99.90;;;;;;5075701;28;20412;-68
2023/05/04 01:34:01;;;;;;;;;;;9.30;99.90;;;;;;5071272;28;19947;-67
2023/05/04 01:36:28;;;;;;;;;;;9.10;99.90;;;;;;5074448;28;19993;-69
2023/05/04 01:38:58;;;;;;;;;;;9.10;99.90;;;;;;5071831;28;19929;-69
2023/05/04 01:41:25;;;;;;;;;;;9.00;99.90;;;;;;5074986;28;20010;-69
2023/05/04 01:43:52;;;;;;;;;;;8.90;99.90;;;;;;5075263;28;20337;-69
2023/05/04 01:46:19;;;;;;;;;;;8.90;99.90;;;;;;5078789;28;19939;-70
2023/05/04 01:48:46;;;;;;;;;;;8.80;99.90;;;;;;5076724;28;20435;-69
2023/05/04 01:51:13;;;;;;;;;;;8.80;99.90;;;;;;5077466;28;20302;-69
2023/05/04 01:53:40;;;;;;;;;;;8.80;99.90;;;;;;5079025;28;19928;-67
2023/05/04 01:56:09;;;;;;;;;;;8.70;99.90;;;;;;5076670;28;19932;-69
2023/05/04 01:58:35;;;;;;;;;;;8.70;99.90;;;;;;5082246;28;19928;-69
2023/05/04 02:01:02;;;;;;;;;;;8.50;99.90;;;;;;5088666;28;19931;-69
2023/05/04 02:03:30;;;;;;;;;;;8.40;99.90;;;;;;5073491;28;19931;-69
2023/05/04 02:05:56;;;;;;;;;;;8.30;99.90;;;;;;5078365;28;19924;-69
2023/05/04 02:08:23;;;;;;;;;;;8.30;99.90;;;;;;5083409;28;19928;-69
2023/05/04 02:10:50;;;;;;;;;;;8.20;99.90;;;;;;5075313;28;20389;-69
2023/05/04 02:13:18;;;;;;;;;;;8.10;99.90;;;;;;5082229;28;19925;-69
2023/05/04 02:15:46;;;;;;;;;;;8.10;99.90;;;;;;5074180;28;19924;-70
2023/05/04 02:18:13;;;;;;;;;;;8.00;99.90;;;;;;5081747;28;19932;-69
2023/05/04 02:20:39;;;;;;;;;;;7.90;99.90;;;;;;5073871;28;19931;-71
2023/05/04 02:23:06;;;;;;;;;;;7.80;99.90;;;;;;5079799;28;19940;-69
2023/05/04 02:25:33;;;;;;;;;;;7.70;99.90;;;;;;5073455;28;19932;-69
2023/05/04 02:28:00;;;;;;;;;;;7.70;99.90;;;;;;5079706;28;19924;-69
2023/05/04 02:30:28;;;;;;;;;;;7.70;99.90;;;;;;5081928;28;19924;-69
2023/05/04 02:32:54;;;;;;;;;;;7.60;99.90;;;;;;5075531;28;19967;-69
2023/05/04 02:35:22;;;;;;;;;;;7.60;99.90;;;;;;5068201;28;19983;-69
2023/05/04 02:37:48;;;;;;;;;;;7.60;99.90;;;;;;5074137;28;19960;-69
2023/05/04 02:40:15;;;;;;;;;;;7.60;99.90;;;;;;5076499;28;20035;-70
2023/05/04 02:42:42;;;;;;;;;;;7.60;99.90;;;;;;5071522;28;19963;-67
2023/05/04 02:45:09;;;;;;;;;;;7.60;99.90;;;;;;5077040;28;19974;-69
2023/05/04 02:47:38;;;;;;;;;;;7.60;99.90;;;;;;5078706;28;19924;-69
2023/05/04 02:50:05;;;;;;;;;;;7.60;99.90;;;;;;5079435;28;19964;-69
2023/05/04 02:52:32;;;;;;;;;;;7.60;99.90;;;;;;5073755;28;19968;-69
2023/05/04 02:54:59;;;;;;;;;;;7.60;99.90;;;;;;5075688;28;19925;-69
2023/05/04 02:57:26;;;;;;;;;;;7.50;99.90;;;;;;5082181;28;19938;-70
2023/05/04 02:59:52;;;;;;;;;;;7.50;99.90;;;;;;5075459;28;20333;-68
2023/05/04 03:02:19;;;;;;;;;;;7.50;99.90;;;;;;5076454;28;19939;-70
2023/05/04 03:04:47;;;;;;;;;;;7.60;99.90;;;;;;5073606;28;19964;-69
2023/05/04 03:07:14;;;;;;;;;;;7.50;99.90;;;;;;5079503;28;19925;-70
2023/05/04 03:09:41;;;;;;;;;;;7.50;99.90;;;;;;5071807;28;19925;-69
2023/05/04 03:12:08;;;;;;;;;;;7.50;99.90;;;;;;5074754;28;20354;-69
2023/05/04 03:14:35;;;;;;;;;;;7.50;99.90;;;;;;5073551;28;19928;-69
2023/05/04 03:17:02;;;;;;;;;;;7.50;99.90;;;;;;5083403;28;20020;-69
2023/05/04 03:19:29;;;;;;;;;;;7.50;99.90;;;;;;5074446;28;19930;-69
2023/05/04 03:21:57;;;;;;;;;;;7.50;99.90;;;;;;5075122;28;19975;-69
2023/05/04 03:24:25;;;;;;;;;;;7.40;99.90;;;;;;5081136;28;19930;-69
2023/05/04 03:26:51;;;;;;;;;;;7.40;99.90;;;;;;5077695;28;19931;-69
2023/05/04 03:29:18;;;;;;;;;;;7.40;99.90;;;;;;5080888;28;19924;-69
2023/05/04 03:31:45;;;;;;;;;;;7.40;99.90;;;;;;5081619;28;19924;-69
2023/05/04 03:34:16;;;;;;;;;;;7.40;99.90;;;;;;5076255;28;20011;-69
2023/05/04 03:36:43;;;;;;;;;;;7.40;99.90;;;;;;5083664;28;19924;-69
2023/05/04 03:39:12;;;;;;;;;;;7.40;99.90;;;;;;5075742;28;20064;-69
2023/05/04 03:41:39;;;;;;;;;;;7.40;99.90;;;;;;5073048;28;19988;-69
2023/05/04 03:44:05;;;;;;;;;;;7.30;99.90;;;;;;5079192;28;19924;-69
2023/05/04 03:46:32;;;;;;;;;;;7.30;99.90;;;;;;5076538;28;19939;-69
2023/05/04 03:48:59;;;;;;;;;;;7.30;99.90;;;;;;5080959;28;19926;-69
2023/05/04 03:51:26;;;;;;;;;;;7.30;99.90;;;;;;5082727;28;19963;-68
2023/05/04 03:53:53;;;;;;;;;;;7.30;99.90;;;;;;5087832;28;19955;-69
2023/05/04 03:56:22;;;;;;;;;;;7.30;99.90;;;;;;5085473;28;19925;-69
2023/05/04 03:58:48;;;;;;;;;;;7.20;99.90;;;;;;5080270;28;19925;-68
2023/05/04 04:01:20;;;;;;;;;;;7.10;99.90;;;;;;5076886;28;20012;-69
2023/05/04 04:03:46;;;;;;;;;;;7.10;99.90;;;;;;5080973;28;19980;-69
2023/05/04 04:06:13;;;;;;;;;;;7.10;99.90;;;;;;5083450;28;19931;-69
2023/05/04 04:08:40;;;;;;;;;;;7.10;99.90;;;;;;5087545;28;19931;-68
2023/05/04 04:11:08;;;;;;;;;;;7.10;99.90;;;;;;5077013;28;19924;-69
2023/05/04 04:13:36;;;;;;;;;;;7.10;99.90;;;;;;5075636;28;19946;-68
2023/05/04 04:16:03;;;;;;;;;;;7.10;99.90;;;;;;5078727;28;19924;-69
2023/05/04 04:18:30;;;;;;;;;;;7.10;99.90;;;;;;5084514;28;19974;-69
2023/05/04 04:20:57;;;;;;;;;;;7.10;99.90;;;;;;5089359;28;19928;-68
2023/05/04 04:23:24;;;;;;;;;;;7.10;99.90;;;;;;5077915;28;19974;-68
2023/05/04 04:25:52;;;;;;;;;;;7.10;99.90;;;;;;5086670;28;20444;-68
2023/05/04 04:28:20;;;;;;;;;;;7.10;99.90;;;;;;5076245;28;19951;-69
2023/05/04 04:30:48;;;;;;;;;;;7.10;99.90;;;;;;5082303;28;19936;-68
2023/05/04 04:33:15;;;;;;;;;;;7.10;99.90;;;;;;5089299;28;19924;-70
2023/05/04 04:35:42;;;;;;;;;;;7.20;99.90;;;;;;5084412;28;20292;-70
2023/05/04 04:38:09;;;;;;;;;;;7.20;99.90;;;;;;5088180;28;19943;-69
2023/05/04 04:40:36;;;;;;;;;;;7.30;99.90;;;;;;5081861;28;19954;-69
2023/05/04 04:43:03;;;;;;;;;;;7.30;99.90;;;;;;5083660;28;19932;-69
2023/05/04 04:45:30;;;;;;;;;;;7.30;99.90;;;;;;5076997;28;19924;-69
2023/05/04 04:47:58;;;;;;;;;;;7.40;99.90;;;;;;5074621;28;19928;-69
2023/05/04 04:50:25;;;;;;;;;;;7.50;99.90;;;;;;5081179;28;19924;-69
2023/05/04 04:52:51;;;;;;;;;;;7.60;99.90;;;;;;5080765;28;19974;-69
2023/05/04 04:55:19;;;;;;;;;;;7.70;99.90;;;;;;5079307;28;19924;-70
2023/05/04 04:57:45;;;;;;;;;;;7.80;99.90;;;;;;5080108;28;19925;-71
2023/05/04 05:00:13;;;;;;;;;;;7.90;99.90;;;;;;5079932;28;19925;-72
2023/05/04 05:02:40;;;;;;;;;;;8.00;99.90;;;;;;5066398;28;19931;-70
2023/05/04 05:05:09;;;;;;;;;;;8.20;99.90;;;;;;5071879;28;19974;-68
2023/05/04 05:07:36;;;;;;;;;;;8.30;99.90;;;;;;5083847;28;19928;-69
2023/05/04 05:10:03;;;;;;;;;;;8.40;99.90;;;;;;5078803;28;19924;-68
2023/05/04 05:12:30;;;;;;;;;;;8.50;99.90;;;;;;5082659;28;19932;-68
2023/05/04 05:14:57;;;;;;;;;;;8.50;99.90;;;;;;5068591;28;19975;-69
2023/05/04 05:17:24;;;;;;;;;;;8.60;99.90;;;;;;5080118;28;19928;-69
2023/05/04 05:19:51;;;;;;;;;;;8.80;99.90;;;;;;5080344;28;20354;-69
2023/05/04 05:22:19;;;;;;;;;;;8.80;99.90;;;;;;5085998;28;19928;-69
2023/05/04 05:24:46;;;;;;;;;;;8.90;99.90;;;;;;5081599;28;20358;-69
2023/05/04 05:27:13;;;;;;;;;;;9.10;99.90;;;;;;5079484;28;19924;-69
2023/05/04 05:29:40;;;;;;;;;;;9.10;99.90;;;;;;5079661;28;19924;-69
2023/05/04 05:32:07;;;;;;;;;;;9.30;99.90;;;;;;5079956;28;19977;-69
2023/05/04 05:34:37;;;;;;;;;;;9.50;99.90;;;;;;5086575;28;19952;-69
2023/05/04 05:37:04;;;;;;;;;;;9.50;99.90;;;;;;5072720;28;19925;-68
2023/05/04 05:39:32;;;;;;;;;;;9.60;99.90;;;;;;5090323;28;19924;-69
2023/05/04 05:41:59;;;;;;;;;;;9.70;99.90;;;;;;5086219;28;20410;-69
2023/05/04 05:44:26;;;;;;;;;;;9.90;99.90;;;;;;5081615;28;19924;-68
2023/05/04 05:46:53;;;;;;;;;;;10.00;99.90;;;;;;5082313;28;20353;-70
2023/05/04 05:49:19;;;;;;;;;;;10.20;99.90;;;;;;5071480;28;19974;-70
2023/05/04 05:51:46;;;;;;;;;;;10.30;99.90;;;;;;5069646;28;20005;-69
2023/05/04 05:54:14;;;;;;;;;;;10.40;99.90;;;;;;5075305;28;19924;-69
2023/05/04 05:56:42;;;;;;;;;;;10.50;99.90;;;;;;5069646;28;19924;-70
2023/05/04 05:59:08;;;;;;;;;;;10.60;99.90;;;;;;5072463;28;19993;-70
2023/05/04 06:01:35;;;;;;;;;;;10.70;99.90;;;;;;5075945;28;19925;-69
2023/05/04 06:04:02;;;;;;;;;;;10.70;99.90;;;;;;5073932;28;19928;-69
2023/05/04 06:06:29;;;;;;;;;;;10.80;99.90;;;;;;5069752;28;19993;-69
2023/05/04 06:08:56;;;;;;;;;;;10.80;99.90;;;;;;5070949;28;19925;-69
2023/05/04 06:11:22;;;;;;;;;;;10.90;99.90;;;;;;5071552;28;20350;-69
2023/05/04 06:13:50;;;;;;;;;;;10.90;99.90;;;;;;5078021;28;19924;-70
2023/05/04 06:16:17;;;;;;;;;;;11.00;99.90;;;;;;5074087;28;19928;-70
2023/05/04 06:18:44;;;;;;;;;;;11.00;99.90;;;;;;5071414;28;19924;-69
2023/05/04 06:21:11;;;;;;;;;;;11.10;99.90;;;;;;5073557;28;19928;-69
2023/05/04 06:23:38;;;;;;;;;;;11.10;99.90;;;;;;5077824;28;20419;-69
2023/05/04 06:26:06;;;;;;;;;;;11.20;99.90;;;;;;5072276;28;20364;-70
2023/05/04 06:28:33;;;;;;;;;;;11.20;99.90;;;;;;5074289;28;19925;-70
2023/05/04 06:31:02;;;;;;;;;;;11.20;99.90;;;;;;5076163;28;19970;-69
2023/05/04 06:33:29;;;;;;;;;;;11.20;99.90;;;;;;5070824;28;20342;-69
2023/05/04 06:35:56;;;;;;;;;;;11.30;99.90;;;;;;5075275;28;19993;-70
2023/05/04 06:38:22;;;;;;;;;;;11.30;99.90;;;;;;5072471;28;19924;-70
2023/05/04 06:40:49;;;;;;;;;;;11.30;99.90;;;;;;5073558;28;20383;-70
2023/05/04 06:43:16;;;;;;;;;;;11.40;99.90;;;;;;5077453;28;19924;-70
2023/05/04 06:45:43;;;;;;;;;;;11.50;99.90;;;;;;5073737;28;19981;-70
2023/05/04 06:48:11;;;;;;;;;;;11.50;99.90;;;;;;5077163;28;19998;-70
2023/05/04 06:50:39;;;;;;;;;;;11.60;99.90;;;;;;5076440;28;20403;-70
2023/05/04 06:53:06;;;;;;;;;;;11.70;99.90;;;;;;5069048;28;19928;-70
2023/05/04 06:55:33;;;;;;;;;;;11.90;99.90;;;;;;5078085;28;19924;-70
2023/05/04 06:58:00;;;;;;;;;;;11.90;99.90;;;;;;5070656;28;19928;-70
2023/05/04 07:00:27;;;;;;;;;;;12.10;99.90;;;;;;5084479;28;19964;-70
2023/05/04 07:02:53;;;;;;;;;;;12.10;99.90;;;;;;5072761;28;19928;-70
2023/05/04 07:05:22;;;;;;;;;;;12.20;99.90;;;;;;5070013;28;19924;-71
2023/05/04 07:07:49;;;;;;;;;;;12.20;99.90;;;;;;5070711;28;19928;-70
2023/05/04 07:10:16;;;;;;;;;;;12.30;99.90;;;;;;5072590;28;20354;-70
2023/05/04 07:12:43;;;;;;;;;;;12.30;99.90;;;;;;5075125;28;20032;-70
2023/05/04 07:15:10;;;;;;;;;;;12.40;99.90;;;;;;5073706;28;19928;-70
2023/05/04 07:17:37;;;;;;;;;;;12.40;99.90;;;;;;5073093;28;19925;-70
2023/05/04 07:20:04;;;;;;;;;;;12.50;99.90;;;;;;5072928;28;19925;-70
2023/05/04 07:22:32;;;;;;;;;;;12.50;99.90;;;;;;5090277;28;19961;-70
2023/05/04 07:24:59;;;;;;;;;;;12.50;99.90;;;;;;5074311;28;19928;-70
2023/05/04 07:27:26;;;;;;;;;;;12.60;99.90;;;;;;5072628;28;19932;-70
2023/05/04 07:29:53;;;;;;;;;;;12.60;99.90;;;;;;5078857;28;20383;-71
2023/05/04 07:32:20;;;;;;;;;;;12.70;99.90;;;;;;5075120;28;19979;-70
2023/05/04 07:34:47;;;;;;;;;;;12.80;99.90;;;;;;5075353;28;20284;-70
2023/05/04 07:37:14;;;;;;;;;;;12.90;99.90;;;;;;5073526;28;19924;-70
2023/05/04 07:39:42;;;;;;;;;;;13.00;99.90;;;;;;5075414;28;19925;-69
2023/05/04 07:42:10;;;;;;;;;;;13.00;99.90;;;;;;5075323;28;19929;-71
2023/05/04 07:44:37;;;;;;;;;;;13.10;99.90;;;;;;5068120;28;19932;-70
2023/05/04 07:47:04;;;;;;;;;;;13.30;99.90;;;;;;5082587;28;19931;-71
2023/05/04 07:49:31;;;;;;;;;;;13.50;99.90;;;;;;5071536;28;19936;-70
2023/05/04 07:51:57;;;;;;;;;;;13.70;99.90;;;;;;5075756;28;19924;-70
2023/05/04 07:54:24;;;;;;;;;;;13.80;99.90;;;;;;5073005;28;19932;-70
2023/05/04 07:56:52;;;;;;;;;;;13.90;99.90;;;;;;5075478;28;19925;-71
2023/05/04 07:59:20;;;;;;;;;;;14.00;99.90;;;;;;5074042;28;19960;-70
2023/05/04 08:01:47;;;;;;;;;;;14.10;99.90;;;;;;5079751;28;20035;-70
2023/05/04 08:04:14;;;;;;;;;;;14.30;99.90;;;;;;5076208;28;19924;-72
2023/05/04 08:06:40;;;;;;;;;;;14.50;99.90;;;;;;5079122;28;19925;-70
2023/05/04 08:09:07;;;;;;;;;;;14.60;99.90;;;;;;5069662;28;19925;-70
2023/05/04 08:11:34;;;;;;;;;;;14.70;99.90;;;;;;5071786;28;19924;-70
2023/05/04 08:14:03;;;;;;;;;;;14.80;99.90;;;;;;5079446;28;19947;-70
2023/05/04 08:16:29;;;;;;;;;;;14.80;99.90;;;;;;5072800;28;19936;-70
2023/05/04 08:18:57;;;;;;;;;;;14.80;99.90;;;;;;5078825;28;19973;-70
2023/05/04 08:21:23;;;;;;;;;;;14.90;99.90;;;;;;5072383;28;20465;-70
2023/05/04 08:23:50;;;;;;;;;;;15.00;99.90;;;;;;5070940;28;20358;-71
2023/05/04 08:26:18;;;;;;;;;;;15.10;99.90;;;;;;5073772;28;19946;-70
2023/05/04 08:28:45;;;;;;;;;;;15.20;99.90;;;;;;5076295;28;19924;-71
2023/05/04 08:31:13;;;;;;;;;;;15.30;99.90;;;;;;5072266;28;19978;-70
2023/05/04 08:33:40;;;;;;;;;;;15.40;99.90;;;;;;5072114;28;19950;-70
2023/05/04 08:36:08;;;;;;;;;;;15.50;99.90;;;;;;5071332;28;19928;-70
2023/05/04 08:38:35;;;;;;;;;;;15.70;99.90;;;;;;5072021;28;19924;-71
2023/05/04 08:41:02;;;;;;;;;;;15.80;99.90;;;;;;5071612;28;19982;-70
2023/05/04 08:43:29;;;;;;;;;;;15.90;99.90;;;;;;5074022;28;19936;-70
2023/05/04 08:45:55;;;;;;;;;;;16.10;99.90;;;;;;5074449;28;19932;-70
2023/05/04 08:48:24;;;;;;;;;;;16.30;99.90;;;;;;5072266;28;20375;-70
2023/05/04 08:50:51;;;;;;;;;;;16.30;99.90;;;;;;5071877;28;19931;-69
2023/05/04 08:53:18;;;;;;;;;;;16.50;99.90;;;;;;5072682;28;19982;-70
2023/05/04 08:55:46;;;;;;;;;;;16.60;99.90;;;;;;5074987;28;20007;-71
2023/05/04 08:58:13;;;;;;;;;;;16.70;99.90;;;;;;5071962;28;19931;-70
2023/05/04 09:00:42;;;;;;;;;;;16.70;99.90;;;;;;5071502;28;19933;-70
2023/05/04 09:03:09;;;;;;;;;;;16.80;99.90;;;;;;5078325;28;19932;-70
2023/05/04 09:05:37;;;;;;;;;;;17.00;99.90;;;;;;5074521;28;20391;-70
2023/05/04 09:08:05;;;;;;;;;;;17.00;99.90;;;;;;5079670;28;20277;-71
2023/05/04 09:10:33;;;;;;;;;;;17.00;99.90;;;;;;5078342;28;20535;-70
2023/05/04 09:12:59;;;;;;;;;;;17.10;99.90;;;;;;5072283;28;20368;-70
2023/05/04 09:15:26;;;;;;;;;;;17.20;99.90;;;;;;5073743;28;19974;-71
2023/05/04 09:17:57;;;;;;;;;;;17.30;99.90;;;;;;5075343;28;19924;-71
2023/05/04 09:20:24;;;;;;;;;;;17.40;99.90;;;;;;5072130;28;20399;-71
2023/05/04 09:23:01;;;;;;;;;;;17.40;99.90;;;;;;5076989;28;19956;-70
2023/05/04 09:25:27;;;;;;;;;;;17.40;99.90;;;;;;5079240;28;19928;-71
2023/05/04 09:27:54;;;;;;;;;;;17.50;99.90;;;;;;5076648;28;20018;-70
2023/05/04 09:30:21;;;;;;;;;;;17.60;99.90;;;;;;5070857;28;20307;-70
2023/05/04 09:32:49;;;;;;;;;;;17.60;99.90;;;;;;5080745;28;20023;-70
2023/05/04 09:35:17;;;;;;;;;;;17.70;99.90;;;;;;5076889;28;19924;-69
2023/05/04 09:37:45;;;;;;;;;;;17.70;99.90;;;;;;5070837;28;20346;-70
2023/05/04 09:40:14;;;;;;;;;;;17.80;99.90;;;;;;5092294;28;19924;-71
2023/05/04 09:42:42;;;;;;;;;;;17.90;99.90;;;;;;5078218;28;19994;-70
2023/05/04 09:45:09;;;;;;;;;;;17.90;99.90;;;;;;5081647;28;19924;-71
2023/05/04 09:47:37;;;;;;;;;;;18.10;99.90;;;;;;5077807;28;19932;-71
2023/05/04 09:50:14;;;;;;;;;;;18.10;99.90;;;;;;5076354;28;19924;-71
2023/05/04 09:52:41;;;;;;;;;;;18.20;99.90;;;;;;5082331;28;20001;-71
2023/05/04 09:55:11;;;;;;;;;;;18.30;99.90;;;;;;5081118;28;19924;-69
2023/05/04 09:57:40;;;;;;;;;;;18.50;99.90;;;;;;5073408;28;20402;-71
2023/05/04 10:00:07;;;;;;;;;;;18.60;99.90;;;;;;5082769;28;20392;-69
2023/05/04 10:02:34;;;;;;;;;;;18.60;99.90;;;;;;5077907;28;19924;-69
2023/05/04 10:05:01;;;;;;;;;;;18.80;99.90;;;;;;5070760;28;19931;-68
2023/05/04 10:07:30;;;;;;;;;;;18.90;99.90;;;;;;5081184;28;19928;-68
2023/05/04 10:09:58;;;;;;;;;;;19.10;99.90;;;;;;5088566;28;19928;-68
2023/05/04 10:12:24;;;;;;;;;;;19.30;99.90;;;;;;5078891;28;20325;-68
2023/05/04 10:14:53;;;;;;;;;;;19.50;99.90;;;;;;5081586;28;19928;-69
2023/05/04 10:17:23;;;;;;;;;;;19.60;99.90;;;;;;5080163;28;19924;-69
2023/05/04 10:19:59;;;;;;;;;;;19.70;99.90;;;;;;5084419;28;20417;-69
2023/05/04 10:22:33;;;;;;;;;;;19.90;99.90;;;;;;5077519;28;19924;-69
2023/05/04 10:25:06;;;;;;;;;;;20.00;99.90;;;;;;5064431;28;20391;-69
2023/05/04 10:27:45;;;;;;;;;;;20.30;99.90;;;;;;5072188;28;20468;-69
2023/05/04 10:30:15;;;;;;;;;;;20.50;99.90;;;;;;5066595;28;19932;-68
2023/05/04 10:32:42;;;;;;;;;;;20.60;99.90;;;;;;5078945;28;19936;-68
2023/05/04 10:35:09;;;;;;;;;;;20.70;99.90;;;;;;5083805;28;19924;-68
2023/05/04 10:37:36;;;;;;;;;;;20.70;99.90;;;;;;5084533;28;19929;-68
2023/05/04 10:40:05;;;;;;;;;;;20.80;99.90;;;;;;5083889;28;19925;-68
2023/05/04 10:42:40;;;;;;;;;;;20.90;99.90;;;;;;5079088;28;19929;-68
2023/05/04 10:45:08;;;;;;;;;;;21.00;99.90;;;;;;5085014;28;20471;-68
2023/05/04 10:47:39;;;;;;;;;;;21.10;99.90;;;;;;5077408;28;19990;-69
2023/05/04 10:50:06;;;;;;;;;;;21.30;99.90;;;;;;5080808;28;19928;-70
2023/05/04 10:52:45;;;;;;;;;;;21.30;99.90;;;;;;5079916;28;19924;-71
2023/05/04 10:55:11;;;;;;;;;;;21.30;99.90;;;;;;5085244;28;19932;-72
2023/05/04 10:57:46;;;;;;;;;;;21.50;99.90;;;;;;5072149;28;19928;-71
2023/05/04 11:00:13;;;;;;;;;;;21.80;99.90;;;;;;5077822;28;19930;-70
2023/05/04 11:02:41;;;;;;;;;;;22.00;99.90;;;;;;5080825;28;19928;-71
2023/05/04 11:05:14;;;;;;;;;;;22.10;99.90;;;;;;5072080;28;19924;-70
2023/05/04 11:07:41;;;;;;;;;;;22.30;99.90;;;;;;5069540;28;20027;-69
2023/05/04 11:10:09;;;;;;;;;;;22.50;99.90;;;;;;5076536;28;19924;-71
2023/05/04 11:12:37;;;;;;;;;;;22.70;99.90;;;;;;5068579;28;19931;-71
2023/05/04 11:15:05;;;;;;;;;;;22.70;99.90;;;;;;5075902;28;19924;-71
2023/05/04 11:17:32;;;;;;;;;;;22.90;99.90;;;;;;5077267;28;20023;-71
2023/05/04 11:20:00;;;;;;;;;;;23.00;99.90;;;;;;5070092;28;19928;-69
2023/05/04 11:22:28;;;;;;;;;;;23.10;99.90;;;;;;5083781;28;20306;-69
2023/05/04 11:24:55;;;;;;;;;;;23.10;99.90;;;;;;5062520;28;20027;-71
2023/05/04 11:27:23;;;;;;;;;;;23.10;99.90;;;;;;5066259;28;19932;-70
2023/05/04 11:29:53;;;;;;;;;;;23.40;99.90;;;;;;5082434;28;19924;-68
2023/05/04 11:32:20;;;;;;;;;;;23.80;99.90;;;;;;5070043;28;19928;-69
2023/05/04 11:34:47;;;;;;;;;;;24.70;99.90;;;;;;5083026;28;20341;-69
2023/05/04 11:37:15;;;;;;;;;;;25.50;99.90;;;;;;5079364;28;20353;-70
2023/05/04 11:39:42;;;;;;;;;;;26.30;99.90;;;;;;5082791;28;19982;-69
2023/05/04 11:42:09;;;;;;;;;;;27.10;99.90;;;;;;5069380;28;19925;-69
2023/05/04 11:44:36;;;;;;;;;;;;;;;;;;5074810;28;19947;-69
2023/05/04 11:47:03;;;;;;;;;;;28.80;99.90;;;;;;5082385;28;19928;-69
2023/05/04 11:49:31;;;;;;;;;;;29.10;99.90;;;;;;5076859;28;20453;-71
2023/05/04 11:52:05;;;;;;;;;;;30.30;99.90;;;;;;5079699;28;19924;-71
2023/05/04 11:54:34;;;;;;;;;;;30.70;99.90;;;;;;5070691;28;20395;-72
2023/05/04 11:57:01;;;;;;;;;;;31.20;99.90;;;;;;5087163;28;20419;-72
2023/05/04 11:59:28;;;;;;;;;;;31.10;99.90;;;;;;5083070;28;19925;-73
2023/05/04 12:01:55;;;;;;;;;;;31.10;99.90;;;;;;5086512;28;19960;-71
2023/05/04 12:04:22;;;;;;;;;;;30.70;99.90;;;;;;5083791;28;19931;-71
2023/05/04 12:06:49;;;;;;;;;;;30.60;99.90;;;;;;5077291;28;19924;-72
2023/05/04 12:09:16;;;;;;;;;;;31.40;99.90;;;;;;5075996;28;20391;-71
2023/05/04 12:11:53;;;;;;;;;;;31.70;99.90;;;;;;5083954;28;19931;-72
2023/05/04 12:14:22;;;;;;;;;;;31.60;99.90;;;;;;5079441;28;19956;-72
2023/05/04 12:16:53;;;;;;;;;;;31.70;99.90;;;;;;5068782;28;19974;-71
2023/05/04 12:19:20;;;;;;;;;;;31.20;99.90;;;;;;5087617;28;20284;-71
2023/05/04 12:21:51;;;;;;;;;;;31.30;99.90;;;;;;5071689;28;19924;-71
2023/05/04 12:24:18;;;;;;;;;;;31.40;99.90;;;;;;5081398;28;19924;-71
2023/05/04 12:26:46;;;;;;;;;;;31.40;99.90;;;;;;5071754;28;19928;-72
2023/05/04 12:29:13;;;;;;;;;;;32.30;99.90;;;;;;5081839;28;19924;-72
2023/05/04 12:31:40;;;;;;;;;;;32.30;99.90;;;;;;5070436;28;19928;-72
2023/05/04 12:34:06;;;;;;;;;;;32.70;99.90;;;;;;5073827;28;19928;-72
2023/05/04 12:36:34;;;;;;;;;;;33.50;99.90;;;;;;5077038;28;19932;-71
2023/05/04 12:39:00;;;;;;;;;;;32.80;99.90;;;;;;5079955;28;19932;-71
2023/05/04 12:41:27;;;;;;;;;;;32.30;99.90;;;;;;5079476;28;19925;-72
2023/05/04 12:43:55;;;;;;;;;;;32.60;99.90;;;;;;5077418;28;19928;-72
2023/05/04 12:46:22;;;;;;;;;;;32.90;99.90;;;;;;5077897;28;19928;-71
2023/05/04 12:48:49;;;;;;;;;;;32.70;99.90;;;;;;5075377;28;19924;-72
2023/05/04 12:51:16;;;;;;;;;;;32.60;99.90;;;;;;5080832;28;19931;-71
2023/05/04 12:53:43;;;;;;;;;;;33.00;99.90;;;;;;5077642;28;19925;-72
2023/05/04 12:56:09;;;;;;;;;;;33.30;99.90;;;;;;5073859;28;20307;-72
2023/05/04 12:58:36;;;;;;;;;;;33.80;99.90;;;;;;5071286;28;19928;-72
2023/05/04 13:01:04;;;;;;;;;;;34.20;99.90;;;;;;5079676;28;19928;-72
2023/05/04 13:03:31;;;;;;;;;;;34.50;99.90;;;;;;5078656;28;19928;-72
2023/05/04 13:05:58;;;;;;;;;;;34.90;99.90;;;;;;5080280;28;19924;-69
2023/05/04 13:08:25;;;;;;;;;;;35.50;99.90;;;;;;5075457;28;20362;-73
2023/05/04 13:10:51;;;;;;;;;;;35.50;99.90;;;;;;5086301;28;19928;-72
2023/05/04 13:13:21;;;;;;;;;;;35.40;99.90;;;;;;5079945;28;20001;-71
2023/05/04 13:15:49;;;;;;;;;;;33.80;99.90;;;;;;5070498;28;20379;-71
2023/05/04 13:18:17;;;;;;;;;;;33.00;99.90;;;;;;5069124;28;19931;-74
2023/05/04 13:20:44;;;;;;;;;;;32.40;99.90;;;;;;5100302;22;19925;-68
2023/05/04 13:23:12;;;;;;;;;;;31.40;99.90;;;;;;5078456;28;20289;-67
2023/05/04 13:25:39;;;;;;;;;;;31.10;99.90;;;;;;5078153;28;19925;-69
2023/05/04 13:28:06;;;;;;;;;;;30.80;99.90;;;;;;5071834;28;19924;-70
2023/05/04 13:30:32;;;;;;;;;;;30.90;99.90;;;;;;5061548;28;19981;-68
2023/05/04 13:32:59;;;;;;;;;;;31.20;99.90;;;;;;5059729;28;20470;-69
2023/05/04 13:35:27;;;;;;;;;;;31.30;99.90;;;;;;5062879;28;19956;-69
2023/05/04 13:37:54;;;;;;;;;;;30.70;99.90;;;;;;5062561;28;20438;-69
2023/05/04 13:40:20;;;;;;;;;;;29.80;99.90;;;;;;5049021;28;20019;-69
2023/05/04 13:42:47;;;;;;;;;;;29.50;99.90;;;;;;5067076;28;20295;-69
2023/05/04 13:45:14;;;;;;;;;;;29.50;99.90;;;;;;5052215;28;19933;-69
2023/05/04 13:47:41;;;;;;;;;;;29.40;99.90;;;;;;5058151;28;19991;-68
2023/05/04 13:50:07;;;;;;;;;;;29.50;99.90;;;;;;5053272;28;19933;-68
2023/05/04 13:52:36;;;;;;;;;;;29.70;99.90;;;;;;5063297;28;19960;-71
2023/05/04 13:55:03;;;;;;;;;;;29.90;99.90;;;;;;5052158;28;19929;-68
2023/05/04 13:57:30;;;;;;;;;;;29.60;99.90;;;;;;5063556;28;19967;-69
2023/05/04 13:59:58;;;;;;;;;;;30.00;99.90;;;;;;5061384;28;19925;-69
2023/05/04 14:02:24;;;;;;;;;;;30.30;99.90;;;;;;5045585;28;19936;-69
2023/05/04 14:04:51;;;;;;;;;;;30.30;99.90;;;;;;5057425;28;19970;-69
2023/05/04 14:07:18;;;;;;;;;;;29.50;99.90;;;;;;5049902;28;19925;-69
2023/05/04 14:09:46;;;;;;;;;;;29.90;99.90;;;;;;5064933;28;19925;-69
2023/05/04 14:12:14;;;;;;;;;;;30.10;99.90;;;;;;5053976;28;19979;-67
2023/05/04 14:14:41;;;;;;;;;;;29.70;99.90;;;;;;5057326;28;19931;-69
2023/05/04 14:17:08;;;;;;;;;;;29.80;99.90;;;;;;5055948;28;19979;-67
2023/05/04 14:19:34;;;;;;;;;;;30.00;99.90;;;;;;5053471;28;20346;-67
2023/05/04 14:22:01;;;;;;;;;;;30.70;99.90;;;;;;5053912;28;19932;-69
2023/05/04 14:24:28;;;;;;;;;;;31.20;99.90;;;;;;5058265;28;19934;-68